sensor_id;sensor_type;location;lat;lon;timestamp;pressure;altitude;pressure_sealevel;temperature;humidity
27980;BME280;15315;50.836;4.430;2023-04-08T00:07:21;101736.81;;;13.18;94.96
27980;BME280;15315;50.836;4.430;2023-04-08T00:17:21;101747.19;;;12.69;98.79
27980;BME280;15315;50.836;4.430;2023-04-08T00:27:22;101739.78;;;12.14;100.00
27980;BME280;15315;50.836;4.430;2023-04-08T00:37:24;101739.19;;;12.23;100.00
27980;BME280;15315;50.836;4.430;2023-04-08T00:47:24;101758.13;;;12.67;100.00
27980;BME280;15315;50.836;4.430;2023-04-08T00:57:25;101750.28;;;13.05;99.94
27980;BME280;15315;50.836;4.430;2023-04-08T01:07:32;101751.34;;;13.17;98.24
27980;BME280;15315;50.836;4.430;2023-04-08T01:17:34;101753.00;;;13.46;96.68
27980;BME280;15315;50.836;4.430;2023-04-08T01:27:36;101754.00;;;13.31;96.54
27980;BME280;15315;50.836;4.430;2023-04-08T01:37:38;101753.47;;;12.97;97.93
27980;BME280;15315;50.836;4.430;2023-04-08T01:47:39;101755.13;;;13.14;97.70
27980;BME280;15315;50.836;4.430;2023-04-08T01:57:43;101752.13;;;12.90;98.40
27980;BME280;15315;50.836;4.430;2023-04-08T02:07:46;101749.31;;;12.64;100.00
27980;BME280;15315;50.836;4.430;2023-04-08T02:17:54;101751.97;;;12.35;100.00
27980;BME280;15315;50.836;4.430;2023-04-08T02:27:55;101762.25;;;11.85;100.00
27980;BME280;15315;50.836;4.430;2023-04-08T02:37:57;101766.00;;;11.83;100.00
27980;BME280;15315;50.836;4.430;2023-04-08T02:47:58;101781.75;;;11.90;100.00
27980;BME280;15315;50.836;4.430;2023-04-08T02:57:59;101778.59;;;12.57;100.00
27980;BME280;15315;50.836;4.430;2023-04-08T03:07:59;101788.97;;;12.93;100.00
27980;BME280;15315;50.836;4.430;2023-04-08T03:18:00;101788.03;;;12.50;100.00
27980;BME280;15315;50.836;4.430;2023-04-08T03:28:00;101785.66;;;12.60;100.00
27980;BME280;15315;50.836;4.430;2023-04-08T03:38:01;101781.31;;;12.71;100.00
27980;BME280;15315;50.836;4.430;2023-04-08T03:48:01;101783.44;;;12.52;100.00
27980;BME280;15315;50.836;4.430;2023-04-08T03:58:01;101791.38;;;12.69;100.00
27980;BME280;15315;50.836;4.430;2023-04-08T04:08:02;101802.94;;;13.42;100.00
27980;BME280;15315;50.836;4.430;2023-04-08T04:18:02;101794.69;;;12.88;100.00
27980;BME280;15315;50.836;4.430;2023-04-08T04:28:03;101800.84;;;12.90;100.00
27980;BME280;15315;50.836;4.430;2023-04-08T04:38:03;101806.34;;;12.89;100.00
27980;BME280;15315;50.836;4.430;2023-04-08T04:48:09;101821.72;;;12.15;100.00
27980;BME280;15315;50.836;4.430;2023-04-08T04:58:10;101817.66;;;13.10;100.00
27980;BME280;15315;50.836;4.430;2023-04-08T05:08:10;101831.13;;;13.11;100.00
27980;BME280;15315;50.836;4.430;2023-04-08T05:18:11;101844.00;;;13.22;100.00
27980;BME280;15315;50.836;4.430;2023-04-08T05:28:11;101841.53;;;12.75;100.00
27980;BME280;15315;50.836;4.430;2023-04-08T05:38:11;101849.00;;;12.56;100.00
27980;BME280;15315;50.836;4.430;2023-04-08T05:48:12;101848.09;;;12.41;100.00
27980;BME280;15315;50.836;4.430;2023-04-08T05:58:12;101857.25;;;12.09;100.00
27980;BME280;15315;50.836;4.430;2023-04-08T06:08:12;101866.47;;;12.66;100.00
27980;BME280;15315;50.836;4.430;2023-04-08T06:18:17;101868.72;;;12.87;100.00
27980;BME280;15315;50.836;4.430;2023-04-08T06:28:17;101885.75;;;13.88;100.00
27980;BME280;15315;50.836;4.430;2023-04-08T06:38:17;101906.13;;;12.95;100.00
27980;BME280;15315;50.836;4.430;2023-04-08T06:48:18;101895.22;;;13.25;100.00
27980;BME280;15315;50.836;4.430;2023-04-08T06:58:18;101897.00;;;13.40;100.00
27980;BME280;15315;50.836;4.430;2023-04-08T07:08:18;101910.63;;;13.81;100.00
27980;BME280;15315;50.836;4.430;2023-04-08T07:18:19;101915.56;;;14.15;100.00
27980;BME280;15315;50.836;4.430;2023-04-08T07:28:20;101937.25;;;14.15;100.00
27980;BME280;15315;50.836;4.430;2023-04-08T07:38:21;101941.75;;;13.45;100.00
27980;BME280;15315;50.836;4.430;2023-04-08T07:48:21;101957.00;;;13.90;100.00
27980;BME280;15315;50.836;4.430;2023-04-08T07:58:22;101944.97;;;13.24;100.00
27980;BME280;15315;50.836;4.430;2023-04-08T08:08:23;101962.03;;;14.23;97.08
27980;BME280;15315;50.836;4.430;2023-04-08T08:18:23;101975.53;;;14.10;94.99
27980;BME280;15315;50.836;4.430;2023-04-08T08:28:23;101988.72;;;14.16;94.61
27980;BME280;15315;50.836;4.430;2023-04-08T08:38:24;101998.88;;;13.42;98.20
27980;BME280;15315;50.836;4.430;2023-04-08T08:48:25;102005.00;;;14.16;96.96
27980;BME280;15315;50.836;4.430;2023-04-08T08:58:26;101996.84;;;14.84;89.48
27980;BME280;15315;50.836;4.430;2023-04-08T09:08:31;101995.94;;;14.71;87.66
27980;BME280;15315;50.836;4.430;2023-04-08T09:18:37;101995.66;;;16.39;81.86
27980;BME280;15315;50.836;4.430;2023-04-08T09:28:39;101999.03;;;15.81;74.59
27980;BME280;15315;50.836;4.430;2023-04-08T09:38:40;102001.59;;;15.20;83.95
27980;BME280;15315;50.836;4.430;2023-04-08T09:48:59;101998.66;;;17.53;77.40
27980;BME280;15315;50.836;4.430;2023-04-08T09:59:08;102000.16;;;17.11;72.15
27980;BME280;15315;50.836;4.430;2023-04-08T10:09:11;102011.72;;;15.18;77.67
27980;BME280;15315;50.836;4.430;2023-04-08T10:19:40;101993.88;;;16.15;73.80
27980;BME280;15315;50.836;4.430;2023-04-08T10:29:41;102002.25;;;17.08;72.39
27980;BME280;15315;50.836;4.430;2023-04-08T10:39:48;101993.59;;;17.71;65.90
27980;BME280;15315;50.836;4.430;2023-04-08T10:49:48;101995.47;;;16.90;67.72
27980;BME280;15315;50.836;4.430;2023-04-08T10:59:48;102000.31;;;16.74;68.03
27980;BME280;15315;50.836;4.430;2023-04-08T11:09:49;101997.19;;;16.91;67.57
27980;BME280;15315;50.836;4.430;2023-04-08T11:19:51;101987.97;;;16.81;67.59
27980;BME280;15315;50.836;4.430;2023-04-08T11:29:54;101982.38;;;16.71;65.37
27980;BME280;15315;50.836;4.430;2023-04-08T11:39:55;101982.53;;;16.57;67.43
27980;BME280;15315;50.836;4.430;2023-04-08T11:49:56;101981.22;;;17.21;65.06
27980;BME280;15315;50.836;4.430;2023-04-08T11:59:56;101982.78;;;17.80;65.72
27980;BME280;15315;50.836;4.430;2023-04-08T12:09:57;101982.19;;;17.88;64.68
27980;BME280;15315;50.836;4.430;2023-04-08T12:19:58;101987.22;;;17.59;66.36
27980;BME280;15315;50.836;4.430;2023-04-08T12:29:59;101979.53;;;18.42;63.03
27980;BME280;15315;50.836;4.430;2023-04-08T12:39:59;101975.69;;;18.44;62.61
27980;BME280;15315;50.836;4.430;2023-04-08T12:50:00;101962.22;;;19.48;60.88
27980;BME280;15315;50.836;4.430;2023-04-08T13:00:01;101959.75;;;18.92;60.24
27980;BME280;15315;50.836;4.430;2023-04-08T13:10:03;101960.84;;;19.63;56.97
27980;BME280;15315;50.836;4.430;2023-04-08T13:20:06;101953.22;;;20.46;54.94
27980;BME280;15315;50.836;4.430;2023-04-08T13:30:09;101954.25;;;18.29;57.62
27980;BME280;15315;50.836;4.430;2023-04-08T13:40:09;101949.31;;;18.54;58.04
27980;BME280;15315;50.836;4.430;2023-04-08T13:50:11;101937.22;;;19.00;56.57
27980;BME280;15315;50.836;4.430;2023-04-08T14:00:11;101929.59;;;18.62;57.39
27980;BME280;15315;50.836;4.430;2023-04-08T14:10:12;101936.56;;;17.79;57.96
27980;BME280;15315;50.836;4.430;2023-04-08T14:20:14;101927.25;;;17.48;59.50
27980;BME280;15315;50.836;4.430;2023-04-08T14:30:15;101920.28;;;18.53;56.98
27980;BME280;15315;50.836;4.430;2023-04-08T14:40:15;101913.44;;;18.91;54.64
27980;BME280;15315;50.836;4.430;2023-04-08T14:50:16;101908.44;;;19.37;54.72
27980;BME280;15315;50.836;4.430;2023-04-08T15:00:16;101911.63;;;19.72;54.59
27980;BME280;15315;50.836;4.430;2023-04-08T15:10:16;101915.28;;;19.52;53.50
27980;BME280;15315;50.836;4.430;2023-04-08T15:20:17;101916.00;;;18.72;54.88
27980;BME280;15315;50.836;4.430;2023-04-08T15:30:20;101918.06;;;18.05;56.81
27980;BME280;15315;50.836;4.430;2023-04-08T15:40:23;101901.31;;;18.41;56.08
27980;BME280;15315;50.836;4.430;2023-04-08T15:50:27;101909.16;;;18.77;55.24
27980;BME280;15315;50.836;4.430;2023-04-08T16:00:28;101906.34;;;18.56;53.60
27980;BME280;15315;50.836;4.430;2023-04-08T16:10:28;101906.47;;;19.28;52.11
27980;BME280;15315;50.836;4.430;2023-04-08T16:20:28;101902.28;;;18.83;50.04
27980;BME280;15315;50.836;4.430;2023-04-08T16:30:29;101897.03;;;18.70;49.46
27980;BME280;15315;50.836;4.430;2023-04-08T16:40:29;101906.56;;;18.76;49.46
27980;BME280;15315;50.836;4.430;2023-04-08T16:50:33;101899.75;;;19.53;50.16
27980;BME280;15315;50.836;4.430;2023-04-08T17:00:33;101906.69;;;18.95;48.16
27980;BME280;15315;50.836;4.430;2023-04-08T17:10:34;101906.97;;;19.94;49.97
27980;BME280;15315;50.836;4.430;2023-04-08T17:20:34;101897.72;;;20.73;46.72
27980;BME280;15315;50.836;4.430;2023-04-08T17:30:35;101894.81;;;20.36;47.07
27980;BME280;15315;50.836;4.430;2023-04-08T17:40:35;101906.06;;;19.53;48.49
27980;BME280;15315;50.836;4.430;2023-04-08T17:50:35;101911.28;;;19.15;48.22
27980;BME280;15315;50.836;4.430;2023-04-08T18:00:36;101910.84;;;18.89;49.29
27980;BME280;15315;50.836;4.430;2023-04-08T18:10:36;101919.72;;;18.39;48.85
27980;BME280;15315;50.836;4.430;2023-04-08T18:20:37;101919.03;;;18.58;49.60
27980;BME280;15315;50.836;4.430;2023-04-08T18:30:38;101917.44;;;18.12;51.97
27980;BME280;15315;50.836;4.430;2023-04-08T18:40:38;101936.03;;;17.85;53.51
27980;BME280;15315;50.836;4.430;2023-04-08T18:50:38;101940.41;;;17.76;54.77
27980;BME280;15315;50.836;4.430;2023-04-08T19:00:39;101949.19;;;17.80;55.33
27980;BME280;15315;50.836;4.430;2023-04-08T19:10:40;101937.31;;;17.59;57.02
27980;BME280;15315;50.836;4.430;2023-04-08T19:20:41;101939.75;;;17.40;56.87
27980;BME280;15315;50.836;4.430;2023-04-08T19:30:41;101950.84;;;17.14;57.29
27980;BME280;15315;50.836;4.430;2023-04-08T19:40:41;101956.97;;;16.70;59.98
27980;BME280;15315;50.836;4.430;2023-04-08T19:50:42;101964.47;;;16.56;60.09
27980;BME280;15315;50.836;4.430;2023-04-08T20:00:42;101954.97;;;16.61;61.60
27980;BME280;15315;50.836;4.430;2023-04-08T20:10:43;101976.09;;;16.58;62.05
27980;BME280;15315;50.836;4.430;2023-04-08T20:20:43;101981.03;;;16.53;61.91
27980;BME280;15315;50.836;4.430;2023-04-08T20:30:45;101981.66;;;16.33;62.30
27980;BME280;15315;50.836;4.430;2023-04-08T20:40:47;101980.09;;;15.92;63.94
27980;BME280;15315;50.836;4.430;2023-04-08T20:50:47;101975.13;;;15.61;64.79
27980;BME280;15315;50.836;4.430;2023-04-08T21:00:48;101969.78;;;15.47;65.08
27980;BME280;15315;50.836;4.430;2023-04-08T21:10:48;101967.69;;;15.25;65.22
27980;BME280;15315;50.836;4.430;2023-04-08T21:20:49;101973.69;;;15.30;65.31
27980;BME280;15315;50.836;4.430;2023-04-08T21:30:49;101966.34;;;14.93;67.15
27980;BME280;15315;50.836;4.430;2023-04-08T21:40:50;101964.91;;;14.75;68.23
27980;BME280;15315;50.836;4.430;2023-04-08T21:50:50;101972.94;;;14.76;68.59
27980;BME280;15315;50.836;4.430;2023-04-08T22:00:50;101975.41;;;14.26;71.21
27980;BME280;15315;50.836;4.430;2023-04-08T22:10:52;101970.88;;;14.27;71.25
27980;BME280;15315;50.836;4.430;2023-04-08T22:20:52;101975.75;;;14.07;72.02
27980;BME280;15315;50.836;4.430;2023-04-08T22:30:52;101972.19;;;13.93;72.66
27980;BME280;15315;50.836;4.430;2023-04-08T22:40:54;101969.47;;;13.79;73.31
27980;BME280;15315;50.836;4.430;2023-04-08T22:50:54;101966.09;;;13.75;73.24
27980;BME280;15315;50.836;4.430;2023-04-08T23:00:55;101979.16;;;13.69;72.63
27980;BME280;15315;50.836;4.430;2023-04-08T23:10:55;101961.38;;;13.65;72.87
27980;BME280;15315;50.836;4.430;2023-04-08T23:20:57;101963.19;;;13.64;72.77
27980;BME280;15315;50.836;4.430;2023-04-08T23:30:57;101960.34;;;13.51;72.50
27980;BME280;15315;50.836;4.430;2023-04-08T23:40:58;101961.56;;;13.18;73.58
27980;BME280;15315;50.836;4.430;2023-04-08T23:50:58;101961.56;;;13.18;73.34
